Lemoore Naval Air Station (Reeves Field) Airport
KNLC : now visible

Airfield :











YOU CAN JOIN US ON...

 
LOGIN :

Register | Disclaimer

   EN    FR    IT 

 









Legend :    VFR   Marginal VFR   IFR   Intensive IFR   Very Intensive IFR
Visi :
Ceiling :
>= 8 km
>= 3000ft
5 to 8 km
1000 to 3000 ft
1500m to 5 km
500 to 1000 ft
800 to 1500m
200 to 500 ft
< 800m
< 200 ft
Symbols :   Thunderstorms  Fog  Heavy snow  Heavy precipitations  Wind > 20 kt






- Airport Elevation : 232 ft


KNLC - Lemoore Naval Air Station (Reeves Field)

CURRENT METAR :
  • 291556Z 33008KT 10SM FEW060 SCT100 SCT150 BKN200 27/11 A2981 RMK AO2 SLP094 RH/38 T02720106

EXPIRED METARs :
  • 291456Z 27005KT 10SM FEW060 SCT100 SCT150 BKN200 24/11 A2981 RMK AO2 SLP092 RH/44 T02390106 50008
  • 291356Z 25007KT 10SM CLR 21/11 A2982 RMK AO2 SLP094 T02110106

TAF TAF KNLC
Valid from the 29 at 15:00 until the 30 at 15:00 UTC


2915/3015 23008KT 9999 SCT120 BKN250 QNH2975INS
BECMG 2920/2922 25016G24KT 9999 SCT060 BKN120 530009 530906 QNH2970INS
TEMPO 2922/3003 26020G30KT BKN045 BKN120 BKN250
FM300300 26007KT 9999 SCT250 QNH2973INS 500000 T11/2915Z T35/2923Z FS30122
KZOA FIR / North America



MET'MAP, your aeronautical weather chart ! - Copyright ORBIFLY December 2007 - Disclaimer

ORBIFLY MET'MAP TEAM :

Programming & Development : Alexandra Zaïnal
Concept & original design : Baudouin d'Aumeries
Assistance for programming : Marc-Olivier Méhu
Technical & hardware support : Manuel Goepfert

Contact : metmap@orbifly.com




SOURCES & CREDITS :

   NOAA       Earth
Advisory